• Join FlightAware (Why Join?)
  • Login
  • US Flag 
08:11PM EST


 

Airport Tracker/Info


-or-


 

Live Flight TrackerFlight Track Log ✈ N697BJ ✈ 13-May-2013 ✈ KCMH - KILN

Flight Track Log - Related Links

Times and Time Zones

All times are in EDT time to prevent confusion due to time zone crossing. See the N697BJ flight status page for this flight to view local times or setup timezone preferences in your user account.

Time Position Orientation Groundspeed Altitude Reporting Facility
EDT Latitude Longitude Course Direction KTS MPH feet Rate Location/Type
01:19PM 39.9944 -82.9067 278° West 187 215 1,400  Level Indianapolis Center
01:19PM 39.9969 -82.9314 278° West 185 213 3,000 4,024 Climbing Indianapolis Center
01:20PM 39.9994 -83.0186 272° West 239 275 7,100 3,600 Climbing Indianapolis Center
01:21PM 39.9997 -83.0425 271° West 228 262 7,800 2,700 Climbing Indianapolis Center
01:21PM 39.9950 -83.1108 265° West 241 277 9,800 2,226 Climbing Indianapolis Center
01:22PM 39.9900 -83.1314 252° West 243 280 10,100 218 Climbing Indianapolis Center
01:22PM 39.9586 -83.1825 231° Southwest 306 352 10,000 -97 Descending Indianapolis Center
01:23PM 39.9353 -83.2114 224° Southwest 293 337 10,000  Level Indianapolis Center
01:23PM 39.8944 -83.2619 224° Southwest 303 349 10,000 -492 Level Indianapolis Center
01:24PM 39.8753 -83.2875 226° Southwest 297 342 9,500 -1,967 Descending Indianapolis Center
01:24PM 39.8378 -83.3258 218° Southwest 266 306 8,000 -2,323 Descending Indianapolis Center
01:25PM 39.8133 -83.3414 206° Southwest 269 310 7,100 -2,091 Descending Indianapolis Center
01:25PM 39.7708 -83.3803 215° Southwest 240 276 5,700 -1,548 Descending Indianapolis Center
01:26PM 39.7539 -83.3969 217° Southwest 257 296 5,500 -600 Descending Indianapolis Center
01:26PM 39.7272 -83.4347 227° Southwest 272 313 5,200 -581 Descending Indianapolis Center
01:27PM 39.7014 -83.4686 225° Southwest 266 306 4,900 -700 Descending Indianapolis Center
01:27PM 39.6803 -83.5050 233° Southwest 256 295 4,500 -492 Descending Indianapolis Center
01:28PM 39.6542 -83.5386 225° Southwest 260 299 4,400 -327 Descending Indianapolis Center
01:28PM 39.6381 -83.5647 231° Southwest 241 277 4,200 -677 Descending Indianapolis Center
01:29PM 39.6114 -83.6056 230° Southwest 248 285 3,700 -627 Descending Indianapolis Center
01:29PM 39.5908 -83.6403 232° Southwest 239 275 3,500 -484 Descending Indianapolis Center
01:30PM 39.5658 -83.6675 220° Southwest 239 275 3,200 -500 Descending Indianapolis Center
01:30PM 39.5386 -83.6933 216° Southwest 236 272 3,000 -484 Descending Indianapolis Center
01:31PM 39.5067 -83.7225 215° Southwest 228 262 2,700 -590 Descending Indianapolis Center
01:31PM 39.4953 -83.7392 228° Southwest 182 209 2,400 -984 Descending Indianapolis Center
01:32PM 39.4700 -83.7603 213° Southwest 182 209 1,700 -984 Descending Indianapolis Center
01:32PM 39.4594 -83.7700 215° Southwest 148 170 1,400 -387 Descending Indianapolis Center
01:33PM 39.4367 -83.7919 217° Southwest 165 190 1,300 -140 Descending Indianapolis Center
01:35PM 39.4279 -83.7921 229° Southwest  Level Estimated